sensor_id;sensor_type;location;lat;lon;timestamp;pressure;altitude;pressure_sealevel;temperature;humidity
47082;BME280;33066;49.296;14.470;2023-12-14T00:00:45;95669.72;;;11.22;39.24
47082;BME280;33066;49.296;14.470;2023-12-14T00:03:10;95671.34;;;11.30;39.37
47082;BME280;33066;49.296;14.470;2023-12-14T00:05:36;95674.81;;;11.28;39.29
47082;BME280;33066;49.296;14.470;2023-12-14T00:08:01;95678.20;;;11.25;39.17
47082;BME280;33066;49.296;14.470;2023-12-14T00:10:27;95682.54;;;11.25;39.21
47082;BME280;33066;49.296;14.470;2023-12-14T00:12:54;95680.39;;;10.96;39.06
47082;BME280;33066;49.296;14.470;2023-12-14T00:15:18;95683.96;;;11.16;39.06
47082;BME280;33066;49.296;14.470;2023-12-14T00:17:44;95689.80;;;11.15;39.06
47082;BME280;33066;49.296;14.470;2023-12-14T00:20:09;95694.46;;;11.43;39.11
47082;BME280;33066;49.296;14.470;2023-12-14T00:22:37;95698.29;;;11.25;39.08
47082;BME280;33066;49.296;14.470;2023-12-14T00:25:02;95698.03;;;11.21;39.03
47082;BME280;33066;49.296;14.470;2023-12-14T00:27:25;95701.01;;;10.94;39.03
47082;BME280;33066;49.296;14.470;2023-12-14T00:29:50;95704.58;;;11.16;38.98
47082;BME280;33066;49.296;14.470;2023-12-14T00:32:16;95707.76;;;11.13;39.06
47082;BME280;33066;49.296;14.470;2023-12-14T00:34:41;95708.19;;;10.93;38.93
47082;BME280;33066;49.296;14.470;2023-12-14T00:37:06;95717.16;;;11.20;38.94
47082;BME280;33066;49.296;14.470;2023-12-14T00:39:32;95722.57;;;11.26;38.83
47082;BME280;33066;49.296;14.470;2023-12-14T00:41:58;95723.46;;;11.27;38.90
47082;BME280;33066;49.296;14.470;2023-12-14T00:44:23;95725.16;;;11.01;38.99
47082;BME280;33066;49.296;14.470;2023-12-14T00:46:48;95726.17;;;11.28;38.93
47082;BME280;33066;49.296;14.470;2023-12-14T00:49:13;95727.88;;;11.50;38.97
47082;BME280;33066;49.296;14.470;2023-12-14T00:51:39;95730.74;;;11.32;38.92
47082;BME280;33066;49.296;14.470;2023-12-14T00:54:04;95731.01;;;11.08;39.07
47082;BME280;33066;49.296;14.470;2023-12-14T00:56:29;95737.86;;;11.08;39.18
47082;BME280;33066;49.296;14.470;2023-12-14T00:58:54;95747.95;;;10.99;39.14
47082;BME280;33066;49.296;14.470;2023-12-14T01:01:20;95751.03;;;11.07;39.20
47082;BME280;33066;49.296;14.470;2023-12-14T01:03:45;95755.84;;;11.08;39.30
47082;BME280;33066;49.296;14.470;2023-12-14T01:06:11;95759.90;;;11.18;39.58
47082;BME280;33066;49.296;14.470;2023-12-14T01:08:36;95762.20;;;11.45;39.39
47082;BME280;33066;49.296;14.470;2023-12-14T01:11:03;95765.15;;;11.23;39.77
47082;BME280;33066;49.296;14.470;2023-12-14T01:13:28;95769.13;;;11.29;39.49
47082;BME280;33066;49.296;14.470;2023-12-14T01:15:52;95774.00;;;11.33;39.62
47082;BME280;33066;49.296;14.470;2023-12-14T01:18:18;95771.49;;;11.57;39.75
47082;BME280;33066;49.296;14.470;2023-12-14T01:20:43;95771.34;;;11.34;39.78
47082;BME280;33066;49.296;14.470;2023-12-14T01:23:09;95769.15;;;11.37;39.48
47082;BME280;33066;49.296;14.470;2023-12-14T01:25:34;95770.36;;;11.35;39.35
47082;BME280;33066;49.296;14.470;2023-12-14T01:27:59;95770.20;;;11.55;39.33
47082;BME280;33066;49.296;14.470;2023-12-14T01:30:24;95775.46;;;11.56;39.29
47082;BME280;33066;49.296;14.470;2023-12-14T01:32:49;95779.46;;;11.31;39.43
47082;BME280;33066;49.296;14.470;2023-12-14T01:35:15;95779.08;;;11.28;39.31
47082;BME280;33066;49.296;14.470;2023-12-14T01:37:40;95779.00;;;11.44;39.21
47082;BME280;33066;49.296;14.470;2023-12-14T01:40:07;95780.22;;;11.41;39.29
47082;BME280;33066;49.296;14.470;2023-12-14T01:42:32;95775.25;;;11.40;39.43
47082;BME280;33066;49.296;14.470;2023-12-14T01:44:57;95775.30;;;11.14;39.29
47082;BME280;33066;49.296;14.470;2023-12-14T01:47:22;95774.57;;;11.04;39.73
47082;BME280;33066;49.296;14.470;2023-12-14T01:49:48;95774.91;;;11.03;39.75
47082;BME280;33066;49.296;14.470;2023-12-14T01:52:13;95776.20;;;11.17;39.77
47082;BME280;33066;49.296;14.470;2023-12-14T01:54:39;95779.03;;;11.24;39.78
47082;BME280;33066;49.296;14.470;2023-12-14T01:57:05;95781.16;;;11.28;39.65
47082;BME280;33066;49.296;14.470;2023-12-14T01:59:30;95785.34;;;11.53;39.40
47082;BME280;33066;49.296;14.470;2023-12-14T02:01:56;95788.36;;;11.30;39.38
47082;BME280;33066;49.296;14.470;2023-12-14T02:04:23;95791.70;;;11.04;39.09
47082;BME280;33066;49.296;14.470;2023-12-14T02:06:47;95790.97;;;11.00;39.03
47082;BME280;33066;49.296;14.470;2023-12-14T02:09:13;95794.30;;;10.92;39.04
47082;BME280;33066;49.296;14.470;2023-12-14T02:11:38;95797.28;;;11.41;39.12
47082;BME280;33066;49.296;14.470;2023-12-14T02:14:06;95799.74;;;11.11;39.34
47082;BME280;33066;49.296;14.470;2023-12-14T02:16:29;95802.77;;;11.15;39.12
47082;BME280;33066;49.296;14.470;2023-12-14T02:18:54;95800.91;;;11.12;39.03
47082;BME280;33066;49.296;14.470;2023-12-14T02:21:20;95797.84;;;11.30;39.02
47082;BME280;33066;49.296;14.470;2023-12-14T02:23:46;95801.08;;;11.34;39.10
47082;BME280;33066;49.296;14.470;2023-12-14T02:26:10;95802.43;;;11.18;39.14
47082;BME280;33066;49.296;14.470;2023-12-14T02:28:36;95806.60;;;11.45;39.06
47082;BME280;33066;49.296;14.470;2023-12-14T02:31:01;95808.83;;;11.01;38.79
47082;BME280;33066;49.296;14.470;2023-12-14T02:33:27;95810.09;;;11.26;38.67
47082;BME280;33066;49.296;14.470;2023-12-14T02:35:52;95814.20;;;11.28;38.57
47082;BME280;33066;49.296;14.470;2023-12-14T02:38:18;95817.07;;;11.28;38.67
47082;BME280;33066;49.296;14.470;2023-12-14T02:40:42;95819.56;;;11.22;38.62
47082;BME280;33066;49.296;14.470;2023-12-14T02:43:08;95823.29;;;11.17;38.71
47082;BME280;33066;49.296;14.470;2023-12-14T02:45:33;95825.13;;;11.37;39.04
47082;BME280;33066;49.296;14.470;2023-12-14T02:47:59;95824.25;;;11.15;39.26
47082;BME280;33066;49.296;14.470;2023-12-14T02:50:25;95824.62;;;11.03;39.22
47082;BME280;33066;49.296;14.470;2023-12-14T02:52:49;95822.05;;;11.49;38.87
47082;BME280;33066;49.296;14.470;2023-12-14T02:55:15;95824.84;;;11.22;38.83
47082;BME280;33066;49.296;14.470;2023-12-14T02:57:41;95826.78;;;11.21;38.65
47082;BME280;33066;49.296;14.470;2023-12-14T03:00:08;95825.61;;;11.15;38.92
47082;BME280;33066;49.296;14.470;2023-12-14T03:02:32;95826.28;;;10.97;38.80
47082;BME280;33066;49.296;14.470;2023-12-14T03:04:57;95825.60;;;10.95;38.74
47082;BME280;33066;49.296;14.470;2023-12-14T03:07:23;95826.88;;;11.19;38.66
47082;BME280;33066;49.296;14.470;2023-12-14T03:09:48;95835.01;;;11.09;38.58
47082;BME280;33066;49.296;14.470;2023-12-14T03:12:14;95840.35;;;11.24;38.64
47082;BME280;33066;49.296;14.470;2023-12-14T03:14:39;95843.25;;;11.19;38.67
47082;BME280;33066;49.296;14.470;2023-12-14T03:17:07;95847.78;;;10.90;38.79
47082;BME280;33066;49.296;14.470;2023-12-14T03:19:30;95850.77;;;11.14;38.85
47082;BME280;33066;49.296;14.470;2023-12-14T03:21:55;95856.42;;;11.11;38.91
47082;BME280;33066;49.296;14.470;2023-12-14T03:24:21;95857.56;;;11.13;39.05
47082;BME280;33066;49.296;14.470;2023-12-14T03:26:47;95859.12;;;10.88;39.02
47082;BME280;33066;49.296;14.470;2023-12-14T03:29:12;95860.53;;;11.09;39.03
47082;BME280;33066;49.296;14.470;2023-12-14T03:31:39;95861.87;;;11.15;39.18
47082;BME280;33066;49.296;14.470;2023-12-14T03:34:03;95865.02;;;10.92;39.00
47082;BME280;33066;49.296;14.470;2023-12-14T03:36:29;95867.15;;;11.20;38.77
47082;BME280;33066;49.296;14.470;2023-12-14T03:38:55;95870.27;;;11.17;38.62
47082;BME280;33066;49.296;14.470;2023-12-14T03:41:20;95874.59;;;10.95;38.65
47082;BME280;33066;49.296;14.470;2023-12-14T03:43:46;95878.34;;;11.17;38.60
47082;BME280;33066;49.296;14.470;2023-12-14T03:46:12;95882.17;;;10.93;38.50
47082;BME280;33066;49.296;14.470;2023-12-14T03:48:37;95887.80;;;10.91;38.62
47082;BME280;33066;49.296;14.470;2023-12-14T03:51:03;95888.84;;;11.11;38.53
47082;BME280;33066;49.296;14.470;2023-12-14T03:53:30;95893.57;;;10.86;38.57
47082;BME280;33066;49.296;14.470;2023-12-14T03:55:54;95894.33;;;11.06;38.67
47082;BME280;33066;49.296;14.470;2023-12-14T03:58:21;95896.95;;;11.01;38.69
47082;BME280;33066;49.296;14.470;2023-12-14T04:00:45;95898.29;;;10.97;38.75
47082;BME280;33066;49.296;14.470;2023-12-14T04:03:11;95897.67;;;9.77;38.95
47082;BME280;33066;49.296;14.470;2023-12-14T04:05:35;95903.39;;;11.77;37.51
47082;BME280;33066;49.296;14.470;2023-12-14T04:08:01;95909.36;;;11.76;37.90
47082;BME280;33066;49.296;14.470;2023-12-14T04:13:01;95921.45;;;11.47;38.02
47082;BME280;33066;49.296;14.470;2023-12-14T04:15:26;95926.77;;;11.28;38.04
47082;BME280;33066;49.296;14.470;2023-12-14T04:17:51;95927.50;;;11.34;38.18
47082;BME280;33066;49.296;14.470;2023-12-14T04:20:16;95931.51;;;11.23;38.30
47082;BME280;33066;49.296;14.470;2023-12-14T04:22:42;95936.68;;;11.15;38.56
47082;BME280;33066;49.296;14.470;2023-12-14T04:25:08;95939.49;;;11.09;38.71
47082;BME280;33066;49.296;14.470;2023-12-14T04:27:33;95944.44;;;11.07;38.81
47082;BME280;33066;49.296;14.470;2023-12-14T04:29:59;95948.85;;;10.84;38.81
47082;BME280;33066;49.296;14.470;2023-12-14T04:32:24;95950.47;;;11.05;38.88
47082;BME280;33066;49.296;14.470;2023-12-14T04:34:50;95951.22;;;11.03;38.94
47082;BME280;33066;49.296;14.470;2023-12-14T04:37:15;95954.84;;;11.07;38.96
47082;BME280;33066;49.296;14.470;2023-12-14T04:39:40;95956.79;;;11.32;39.10
47082;BME280;33066;49.296;14.470;2023-12-14T04:42:06;95963.27;;;11.10;39.04
47082;BME280;33066;49.296;14.470;2023-12-14T04:44:31;95968.03;;;11.06;39.16
47082;BME280;33066;49.296;14.470;2023-12-14T04:46:56;95970.85;;;11.09;39.15
47082;BME280;33066;49.296;14.470;2023-12-14T04:49:22;95976.70;;;11.04;39.11
47082;BME280;33066;49.296;14.470;2023-12-14T04:51:48;95975.29;;;11.29;38.85
47082;BME280;33066;49.296;14.470;2023-12-14T04:54:14;95979.35;;;11.00;38.83
47082;BME280;33066;49.296;14.470;2023-12-14T04:56:39;95984.62;;;11.22;38.80
47082;BME280;33066;49.296;14.470;2023-12-14T04:59:04;95987.12;;;10.94;38.83
47082;BME280;33066;49.296;14.470;2023-12-14T05:01:30;95993.03;;;10.88;39.05
47082;BME280;33066;49.296;14.470;2023-12-14T05:03:55;95996.91;;;11.08;39.23
47082;BME280;33066;49.296;14.470;2023-12-14T05:06:20;95999.42;;;10.84;39.05
47082;BME280;33066;49.296;14.470;2023-12-14T05:08:47;96000.37;;;11.09;39.53
47082;BME280;33066;49.296;14.470;2023-12-14T05:11:12;96003.18;;;11.07;39.39
47082;BME280;33066;49.296;14.470;2023-12-14T05:13:36;96004.81;;;11.04;39.12
47082;BME280;33066;49.296;14.470;2023-12-14T05:16:01;96007.73;;;10.85;39.20
47082;BME280;33066;49.296;14.470;2023-12-14T05:18:27;96009.00;;;11.06;39.21
47082;BME280;33066;49.296;14.470;2023-12-14T05:20:52;96017.72;;;11.05;39.40
47082;BME280;33066;49.296;14.470;2023-12-14T05:23:18;96021.57;;;11.10;39.87
47082;BME280;33066;49.296;14.470;2023-12-14T05:25:44;96029.83;;;10.92;39.49
47082;BME280;33066;49.296;14.470;2023-12-14T05:28:10;96033.91;;;10.94;39.38
47082;BME280;33066;49.296;14.470;2023-12-14T05:30:34;96039.03;;;11.16;39.26
47082;BME280;33066;49.296;14.470;2023-12-14T05:33:00;96039.98;;;10.88;39.26
47082;BME280;33066;49.296;14.470;2023-12-14T05:35:25;96041.63;;;10.89;39.21
47082;BME280;33066;49.296;14.470;2023-12-14T05:37:51;96042.69;;;11.20;39.07
47082;BME280;33066;49.296;14.470;2023-12-14T05:40:16;96045.70;;;11.11;39.18
47082;BME280;33066;49.296;14.470;2023-12-14T05:42:42;96050.73;;;10.68;39.11
47082;BME280;33066;49.296;14.470;2023-12-14T05:45:08;96053.06;;;11.18;39.32
47082;BME280;33066;49.296;14.470;2023-12-14T05:47:33;96059.53;;;11.18;39.32
47082;BME280;33066;49.296;14.470;2023-12-14T05:49:58;96063.26;;;11.00;39.16
47082;BME280;33066;49.296;14.470;2023-12-14T05:52:23;96063.23;;;11.24;39.06
47082;BME280;33066;49.296;14.470;2023-12-14T05:54:49;96065.54;;;11.24;39.62
47082;BME280;33066;49.296;14.470;2023-12-14T05:57:14;96069.28;;;10.98;39.65
47082;BME280;33066;49.296;14.470;2023-12-14T05:59:40;96073.08;;;11.04;39.65
47082;BME280;33066;49.296;14.470;2023-12-14T06:02:06;96081.28;;;11.01;39.39
47082;BME280;33066;49.296;14.470;2023-12-14T06:04:30;96084.47;;;11.30;39.28
47082;BME280;33066;49.296;14.470;2023-12-14T06:06:55;96088.04;;;11.05;39.28
47082;BME280;33066;49.296;14.470;2023-12-14T06:09:21;96093.24;;;11.09;39.23
47082;BME280;33066;49.296;14.470;2023-12-14T06:11:47;96090.45;;;11.03;39.35
47082;BME280;33066;49.296;14.470;2023-12-14T06:14:12;96092.80;;;11.32;39.26
47082;BME280;33066;49.296;14.470;2023-12-14T06:16:39;96094.97;;;11.30;39.46
47082;BME280;33066;49.296;14.470;2023-12-14T06:19:03;96095.84;;;11.31;39.71
47082;BME280;33066;49.296;14.470;2023-12-14T06:21:28;96098.26;;;11.09;39.70
47082;BME280;33066;49.296;14.470;2023-12-14T06:23:53;96100.87;;;11.14;39.82
47082;BME280;33066;49.296;14.470;2023-12-14T06:26:19;96104.16;;;10.23;39.65
47082;BME280;33066;49.296;14.470;2023-12-14T06:28:46;96110.58;;;11.26;39.07
47082;BME280;33066;49.296;14.470;2023-12-14T06:31:14;96114.40;;;11.56;39.29
47082;BME280;33066;49.296;14.470;2023-12-14T06:33:35;96121.54;;;11.01;39.74
47082;BME280;33066;49.296;14.470;2023-12-14T06:36:06;96124.41;;;10.89;39.49
47082;BME280;33066;49.296;14.470;2023-12-14T06:38:27;96132.20;;;10.79;39.61
47082;BME280;33066;49.296;14.470;2023-12-14T06:40:52;96134.94;;;10.99;39.65
47082;BME280;33066;49.296;14.470;2023-12-14T06:43:18;96138.50;;;10.94;39.78
47082;BME280;33066;49.296;14.470;2023-12-14T06:45:43;96147.92;;;10.96;39.76
47082;BME280;33066;49.296;14.470;2023-12-14T06:48:11;96150.25;;;11.24;39.90
47082;BME280;33066;49.296;14.470;2023-12-14T06:50:34;96148.41;;;11.08;39.83
47082;BME280;33066;49.296;14.470;2023-12-14T06:53:00;96152.13;;;11.38;39.71
47082;BME280;33066;49.296;14.470;2023-12-14T06:55:25;96157.01;;;11.21;39.46
47082;BME280;33066;49.296;14.470;2023-12-14T06:57:52;96161.02;;;11.22;39.42
47082;BME280;33066;49.296;14.470;2023-12-14T07:00:15;96163.34;;;11.13;39.45
47082;BME280;33066;49.296;14.470;2023-12-14T07:02:41;96168.00;;;10.89;39.43
47082;BME280;33066;49.296;14.470;2023-12-14T07:05:07;96169.73;;;11.21;39.32
47082;BME280;33066;49.296;14.470;2023-12-14T07:07:32;96180.60;;;11.44;39.28
47082;BME280;33066;49.296;14.470;2023-12-14T07:09:56;96186.73;;;11.15;39.21
47082;BME280;33066;49.296;14.470;2023-12-14T07:12:22;96190.05;;;11.36;39.29
47082;BME280;33066;49.296;14.470;2023-12-14T07:14:47;96195.48;;;11.13;39.23
47082;BME280;33066;49.296;14.470;2023-12-14T07:17:13;96197.77;;;11.12;39.33
47082;BME280;33066;49.296;14.470;2023-12-14T07:19:38;96201.36;;;11.12;39.53
47082;BME280;33066;49.296;14.470;2023-12-14T07:22:04;96204.85;;;10.93;39.60
47082;BME280;33066;49.296;14.470;2023-12-14T07:24:30;96210.61;;;11.44;39.50
47082;BME280;33066;49.296;14.470;2023-12-14T07:26:55;96216.54;;;11.43;39.49
47082;BME280;33066;49.296;14.470;2023-12-14T07:29:20;96220.09;;;11.49;39.53
47082;BME280;33066;49.296;14.470;2023-12-14T07:31:46;96224.29;;;11.27;39.44
47082;BME280;33066;49.296;14.470;2023-12-14T07:34:11;96229.39;;;11.30;39.48
47082;BME280;33066;49.296;14.470;2023-12-14T07:36:37;96235.47;;;11.32;39.63
47082;BME280;33066;49.296;14.470;2023-12-14T07:39:02;96241.55;;;11.63;39.53
47082;BME280;33066;49.296;14.470;2023-12-14T07:41:28;96246.82;;;11.27;39.34
47082;BME280;33066;49.296;14.470;2023-12-14T07:43:53;96251.67;;;11.49;39.53
47082;BME280;33066;49.296;14.470;2023-12-14T07:46:18;96255.86;;;11.50;39.40
47082;BME280;33066;49.296;14.470;2023-12-14T07:48:43;96259.60;;;11.30;39.42
47082;BME280;33066;49.296;14.470;2023-12-14T07:51:08;96259.31;;;11.26;39.38
47082;BME280;33066;49.296;14.470;2023-12-14T07:53:34;96264.62;;;11.44;39.42
47082;BME280;33066;49.296;14.470;2023-12-14T07:55:59;96263.26;;;11.43;39.43
47082;BME280;33066;49.296;14.470;2023-12-14T07:58:24;96267.65;;;11.40;39.54
47082;BME280;33066;49.296;14.470;2023-12-14T08:00:50;96269.47;;;11.22;39.59
47082;BME280;33066;49.296;14.470;2023-12-14T08:03:15;96272.83;;;11.21;39.57
47082;BME280;33066;49.296;14.470;2023-12-14T08:05:41;96274.54;;;11.47;39.93
47082;BME280;33066;49.296;14.470;2023-12-14T08:08:06;96275.02;;;11.44;40.22
47082;BME280;33066;49.296;14.470;2023-12-14T08:10:31;96278.35;;;11.47;40.37
47082;BME280;33066;49.296;14.470;2023-12-14T08:12:57;96283.48;;;11.49;39.97
47082;BME280;33066;49.296;14.470;2023-12-14T08:15:21;96284.12;;;11.50;39.76
47082;BME280;33066;49.296;14.470;2023-12-14T08:17:47;96286.38;;;11.51;40.23
47082;BME280;33066;49.296;14.470;2023-12-14T08:20:12;96287.44;;;11.52;40.33
47082;BME280;33066;49.296;14.470;2023-12-14T08:22:38;96289.56;;;11.35;40.27
47082;BME280;33066;49.296;14.470;2023-12-14T08:25:04;96293.36;;;11.63;40.03
47082;BME280;33066;49.296;14.470;2023-12-14T08:27:29;96296.75;;;11.68;40.06
47082;BME280;33066;49.296;14.470;2023-12-14T08:29:55;96301.52;;;11.74;39.94
47082;BME280;33066;49.296;14.470;2023-12-14T08:32:20;96305.08;;;11.79;39.94
47082;BME280;33066;49.296;14.470;2023-12-14T08:34:46;96312.20;;;11.82;39.80
47082;BME280;33066;49.296;14.470;2023-12-14T08:37:12;96314.83;;;11.82;39.85
47082;BME280;33066;49.296;14.470;2023-12-14T08:39:38;96319.86;;;11.83;39.68
47082;BME280;33066;49.296;14.470;2023-12-14T08:42:03;96324.30;;;11.62;39.93
47082;BME280;33066;49.296;14.470;2023-12-14T08:44:28;96328.78;;;11.66;39.87
47082;BME280;33066;49.296;14.470;2023-12-14T08:46:53;96334.24;;;11.68;40.10
47082;BME280;33066;49.296;14.470;2023-12-14T08:49:19;96338.32;;;11.72;40.28
47082;BME280;33066;49.296;14.470;2023-12-14T08:51:44;96341.97;;;11.75;40.27
47082;BME280;33066;49.296;14.470;2023-12-14T08:54:09;96343.37;;;11.84;40.35
47082;BME280;33066;49.296;14.470;2023-12-14T08:56:34;96345.55;;;11.94;40.35
47082;BME280;33066;49.296;14.470;2023-12-14T08:59:00;96348.08;;;11.99;40.41
47082;BME280;33066;49.296;14.470;2023-12-14T09:01:26;96354.67;;;12.03;40.13
47082;BME280;33066;49.296;14.470;2023-12-14T09:03:50;96360.43;;;12.01;40.09
47082;BME280;33066;49.296;14.470;2023-12-14T09:06:17;96364.86;;;12.07;39.98
47082;BME280;33066;49.296;14.470;2023-12-14T09:08:41;96367.21;;;12.06;39.98
47082;BME280;33066;49.296;14.470;2023-12-14T09:11:07;96374.07;;;12.08;39.96
47082;BME280;33066;49.296;14.470;2023-12-14T09:13:34;96376.79;;;12.07;39.98
47082;BME280;33066;49.296;14.470;2023-12-14T09:15:58;96377.26;;;12.11;39.87
47082;BME280;33066;49.296;14.470;2023-12-14T09:18:23;96381.15;;;12.08;39.67
47082;BME280;33066;49.296;14.470;2023-12-14T09:20:50;96384.77;;;12.08;39.67
47082;BME280;33066;49.296;14.470;2023-12-14T09:23:15;96388.66;;;12.02;39.76
47082;BME280;33066;49.296;14.470;2023-12-14T09:25:40;96393.89;;;12.00;39.83
47082;BME280;33066;49.296;14.470;2023-12-14T09:28:05;96394.66;;;12.03;39.78
47082;BME280;33066;49.296;14.470;2023-12-14T09:30:31;96398.19;;;12.09;39.84
47082;BME280;33066;49.296;14.470;2023-12-14T09:32:56;96399.36;;;12.20;39.66
47082;BME280;33066;49.296;14.470;2023-12-14T09:35:21;96402.08;;;12.02;39.72
47082;BME280;33066;49.296;14.470;2023-12-14T09:37:46;96401.21;;;12.22;39.56
47082;BME280;33066;49.296;14.470;2023-12-14T09:40:12;96403.72;;;11.94;39.72
47082;BME280;33066;49.296;14.470;2023-12-14T09:42:38;96404.50;;;11.91;39.84
47082;BME280;33066;49.296;14.470;2023-12-14T09:45:04;96410.35;;;12.22;39.94
47082;BME280;33066;49.296;14.470;2023-12-14T09:47:28;96413.99;;;12.10;39.90
47082;BME280;33066;49.296;14.470;2023-12-14T09:49:55;96419.74;;;12.44;39.98
47082;BME280;33066;49.296;14.470;2023-12-14T09:52:18;96423.39;;;12.46;40.08
47082;BME280;33066;49.296;14.470;2023-12-14T09:54:46;96423.91;;;12.23;40.12
47082;BME280;33066;49.296;14.470;2023-12-14T09:57:10;96427.17;;;12.26;40.33
47082;BME280;33066;49.296;14.470;2023-12-14T09:59:40;96430.66;;;12.33;40.38
47082;BME280;33066;49.296;14.470;2023-12-14T10:02:10;96428.09;;;12.44;40.73
47082;BME280;33066;49.296;14.470;2023-12-14T10:04:27;96428.04;;;12.53;41.07
47082;BME280;33066;49.296;14.470;2023-12-14T10:06:51;96432.97;;;12.39;41.48
47082;BME280;33066;49.296;14.470;2023-12-14T10:09:22;96431.73;;;12.92;41.57
47082;BME280;33066;49.296;14.470;2023-12-14T10:11:43;96432.84;;;12.36;41.47
47082;BME280;33066;49.296;14.470;2023-12-14T10:14:18;96430.35;;;12.55;41.39
47082;BME280;33066;49.296;14.470;2023-12-14T10:16:33;96430.39;;;12.90;41.56
47082;BME280;33066;49.296;14.470;2023-12-14T10:18:59;96434.72;;;12.69;41.46
47082;BME280;33066;49.296;14.470;2023-12-14T10:21:24;96431.85;;;12.80;41.41
47082;BME280;33066;49.296;14.470;2023-12-14T10:23:50;96434.87;;;12.73;41.25
47082;BME280;33066;49.296;14.470;2023-12-14T10:26:15;96434.54;;;12.60;41.60
47082;BME280;33066;49.296;14.470;2023-12-14T10:28:43;96435.90;;;12.72;41.51
47082;BME280;33066;49.296;14.470;2023-12-14T10:31:08;96436.04;;;12.79;41.13
47082;BME280;33066;49.296;14.470;2023-12-14T10:33:32;96439.78;;;12.84;41.32
47082;BME280;33066;49.296;14.470;2023-12-14T10:35:58;96445.28;;;12.90;41.35
47082;BME280;33066;49.296;14.470;2023-12-14T10:38:24;96447.21;;;12.79;41.33
47082;BME280;33066;49.296;14.470;2023-12-14T10:40:49;96452.34;;;12.75;41.47
47082;BME280;33066;49.296;14.470;2023-12-14T10:43:15;96455.45;;;12.57;41.63
47082;BME280;33066;49.296;14.470;2023-12-14T10:45:43;96460.03;;;12.45;41.85
47082;BME280;33066;49.296;14.470;2023-12-14T10:48:06;96464.39;;;12.34;41.92
47082;BME280;33066;49.296;14.470;2023-12-14T10:50:31;96466.87;;;12.47;41.95
47082;BME280;33066;49.296;14.470;2023-12-14T10:52:57;96465.54;;;12.39;41.87
47082;BME280;33066;49.296;14.470;2023-12-14T10:55:28;96468.41;;;12.33;42.01
47082;BME280;33066;49.296;14.470;2023-12-14T10:57:48;96476.12;;;12.64;42.05
47082;BME280;33066;49.296;14.470;2023-12-14T11:00:16;96476.58;;;12.47;42.50
47082;BME280;33066;49.296;14.470;2023-12-14T11:02:41;96480.64;;;12.51;42.60
47082;BME280;33066;49.296;14.470;2023-12-14T11:05:06;96488.48;;;12.29;42.50
47082;BME280;33066;49.296;14.470;2023-12-14T11:07:44;96496.07;;;12.32;42.83
47082;BME280;33066;49.296;14.470;2023-12-14T11:09:56;96493.95;;;12.19;42.91
47082;BME280;33066;49.296;14.470;2023-12-14T11:12:22;96498.00;;;12.30;42.86
47082;BME280;33066;49.296;14.470;2023-12-14T11:14:47;96500.42;;;12.33;43.01
47082;BME280;33066;49.296;14.470;2023-12-14T11:17:12;96500.46;;;12.38;42.98
47082;BME280;33066;49.296;14.470;2023-12-14T11:19:37;96504.56;;;12.18;42.86
47082;BME280;33066;49.296;14.470;2023-12-14T11:22:13;96508.06;;;12.33;42.65
47082;BME280;33066;49.296;14.470;2023-12-14T11:24:30;96505.94;;;12.78;42.40
47082;BME280;33066;49.296;14.470;2023-12-14T11:26:54;96505.09;;;12.45;42.28
47082;BME280;33066;49.296;14.470;2023-12-14T11:29:19;96505.74;;;12.66;41.96
47082;BME280;33066;49.296;14.470;2023-12-14T11:31:44;96505.26;;;13.21;41.56
47082;BME280;33066;49.296;14.470;2023-12-14T11:34:09;96506.34;;;12.91;41.33
47082;BME280;33066;49.296;14.470;2023-12-14T11:36:35;96505.66;;;13.42;41.21
47082;BME280;33066;49.296;14.470;2023-12-14T11:39:00;96504.67;;;13.76;41.03
47082;BME280;33066;49.296;14.470;2023-12-14T11:41:25;96502.96;;;13.33;40.92
47082;BME280;33066;49.296;14.470;2023-12-14T11:43:52;96504.84;;;13.42;40.56
47082;BME280;33066;49.296;14.470;2023-12-14T11:46:17;96508.42;;;13.57;40.49
47082;BME280;33066;49.296;14.470;2023-12-14T11:48:44;96508.00;;;13.87;40.30
47082;BME280;33066;49.296;14.470;2023-12-14T11:51:08;96508.74;;;13.78;40.17
47082;BME280;33066;49.296;14.470;2023-12-14T11:53:33;96513.20;;;13.54;40.38
47082;BME280;33066;49.296;14.470;2023-12-14T11:56:01;96518.10;;;13.53;40.04
47082;BME280;33066;49.296;14.470;2023-12-14T11:58:24;96519.00;;;13.89;40.01
47082;BME280;33066;49.296;14.470;2023-12-14T12:00:50;96520.12;;;14.00;40.15
47082;BME280;33066;49.296;14.470;2023-12-14T12:03:17;96522.57;;;13.55;40.20
47082;BME280;33066;49.296;14.470;2023-12-14T12:05:43;96523.90;;;13.47;40.39
47082;BME280;33066;49.296;14.470;2023-12-14T12:08:07;96531.69;;;13.20;40.37
47082;BME280;33066;49.296;14.470;2023-12-14T12:10:34;96530.02;;;13.49;40.76
47082;BME280;33066;49.296;14.470;2023-12-14T12:13:00;96526.85;;;13.55;41.07
47082;BME280;33066;49.296;14.470;2023-12-14T12:15:23;96526.80;;;13.36;40.74
47082;BME280;33066;49.296;14.470;2023-12-14T12:17:49;96532.67;;;13.66;40.47
47082;BME280;33066;49.296;14.470;2023-12-14T12:20:14;96536.87;;;13.89;40.63
47082;BME280;33066;49.296;14.470;2023-12-14T12:22:39;96542.22;;;13.50;40.41
47082;BME280;33066;49.296;14.470;2023-12-14T12:25:06;96545.76;;;13.25;40.46
47082;BME280;33066;49.296;14.470;2023-12-14T12:27:31;96550.26;;;13.40;40.76
47082;BME280;33066;49.296;14.470;2023-12-14T12:29:56;96551.08;;;13.40;40.58
47082;BME280;33066;49.296;14.470;2023-12-14T12:32:24;96551.57;;;13.60;40.49
47082;BME280;33066;49.296;14.470;2023-12-14T12:34:47;96552.13;;;13.53;40.49
47082;BME280;33066;49.296;14.470;2023-12-14T12:37:12;96552.58;;;13.59;40.38
47082;BME280;33066;49.296;14.470;2023-12-14T12:39:39;96555.56;;;13.46;39.83
47082;BME280;33066;49.296;14.470;2023-12-14T12:42:04;96553.10;;;13.69;40.12